Ce Niriis — A8GG6 — position and weather

sailwx.info

Track history (hours):
 
Tides and Currents Weather Stations Pressure Air Temp Water Temp Dewpoint Dewpoint Depression Visibility Wind Speed Wind Dir Waves Ship Positions

Ce Niriis

Last reported at 2018-Feb-19 07:36 UTC. Time now 2018-Feb-19 08:29 UTC.
Position N 36°22' E 014°53'.

Length 243 m; draft 8 m.

Type: Tanker. MMSI: 636012570.

Date/timePositionNaut miles runAvg speedWind from/ knotsBaromVisibWave heightAir tempDewpointWater temp
2018-Feb-19 07:36N 36°22' E 014°53'112.4
2018-Feb-19 07:30N 36°22' E 014°51'612.0
2018-Feb-19 06:59N 36°23' E 014°43'612.1
2018-Feb-19 06:30N 36°24' E 014°36'612.0
2018-Feb-19 06:00N 36°26' E 014°29'611.8
2018-Feb-19 05:30N 36°28' E 014°22'611.8
2018-Feb-19 05:00N 36°29' E 014°15'611.8
2018-Feb-19 04:30N 36°31' E 014°08'1611.9
2018-Feb-19 03:11N 36°35' E 013°49'  
2018-Feb-15 16:27N 36°37' E 013°46'911.0
2018-Feb-15 15:36N 36°34' E 013°57'111.1
2018-Feb-15 15:30N 36°34' E 013°58'611.2
2018-Feb-15 15:00N 36°33' E 014°05'511.0
2018-Feb-15 14:30N 36°31' E 014°11'611.1
2018-Feb-15 14:00N 36°29' E 014°18'510.7
2018-Feb-15 13:30N 36°28' E 014°24'510.5
2018-Feb-15 13:00N 36°26' E 014°31'510.6
2018-Feb-15 12:29N 36°24' E 014°37'510.5
2018-Feb-15 12:00N 36°23' E 014°43'610.3
2018-Feb-15 11:26N 36°22' E 014°50'  
2018-Feb-12 16:24N 35°48' E 030°20'  
Track history (hours):
 
Tides and Currents Weather Stations Pressure Air Temp Water Temp Dewpoint Dewpoint Depression Visibility Wind Speed Wind Dir Waves Ship Positions

Ce Niriis

Last reported at 2018-Feb-19 07:36 UTC. Time now 2018-Feb-19 08:29 UTC.
Position N 36°22' E 014°53'.

Length 243 m; draft 8 m.

Type: Tanker. MMSI: 636012570.

Date/timePositionNaut miles runAvg speedWind from/ knotsBaromVisibWave heightAir tempDewpointWater temp
2018-Feb-19 07:36N 36°22' E 014°53'112.4
2018-Feb-19 07:30N 36°22' E 014°51'612.0
2018-Feb-19 06:59N 36°23' E 014°43'612.1
2018-Feb-19 06:30N 36°24' E 014°36'612.0
2018-Feb-19 06:00N 36°26' E 014°29'611.8
2018-Feb-19 05:30N 36°28' E 014°22'611.8
2018-Feb-19 05:00N 36°29' E 014°15'611.8
2018-Feb-19 04:30N 36°31' E 014°08'1611.9
2018-Feb-19 03:11N 36°35' E 013°49'  
2018-Feb-15 16:27N 36°37' E 013°46'911.0
2018-Feb-15 15:36N 36°34' E 013°57'111.1
2018-Feb-15 15:30N 36°34' E 013°58'611.2
2018-Feb-15 15:00N 36°33' E 014°05'511.0
2018-Feb-15 14:30N 36°31' E 014°11'611.1
2018-Feb-15 14:00N 36°29' E 014°18'510.7
2018-Feb-15 13:30N 36°28' E 014°24'510.5
2018-Feb-15 13:00N 36°26' E 014°31'510.6
2018-Feb-15 12:29N 36°24' E 014°37'510.5
2018-Feb-15 12:00N 36°23' E 014°43'610.3
2018-Feb-15 11:26N 36°22' E 014°50'  
2018-Feb-12 16:24N 35°48' E 030°20'  

Dump ship's entire track history